Aviation Digital Data Service (ADDS)

Output produced by METARs form (0530 UTC 19 March 2019)
found at http://www.aviationweather.gov/metar/data/
 
METAR text: ELLX 190520Z 01006KT CAVOK M01/M02 Q1025 NOSIG
Conditions at: ELLX (LUXEMBOURG (AUT), LU) observed 0520 UTC 19 March 2019
Temperature: -1.0°C (30°F)
Dewpoint: -2.0°C (28°F) [RH = 93%]
Pressure (altimeter): 30.27 inches Hg (1025.0 mb)
Winds: from the N (10 degrees) at 7 MPH (6 knots; 3.1 m/s)
Visibility: 6 or more miles (10+ km)
Ceiling: ceiling and visibility are OK
Clouds: unknown
Weather: no significant weather observed at this time

METAR text: ELLX 190450Z 01005KT CAVOK M00/M01 Q1025 NOSIG
Conditions at: ELLX (LUXEMBOURG (AUT), LU) observed 0450 UTC 19 March 2019
Temperature: 0.0°C (32°F)
Dewpoint: -1.0°C (30°F) [RH = 93%]
Pressure (altimeter): 30.27 inches Hg (1025.0 mb)
Winds: from the N (10 degrees) at 6 MPH (5 knots; 2.6 m/s)
Visibility: 6 or more miles (10+ km)
Ceiling: ceiling and visibility are OK
Clouds: unknown
Weather: no significant weather observed at this time

METAR text: ELLX 190420Z 36005KT CAVOK M00/M01 Q1025 NOSIG
Conditions at: ELLX (LUXEMBOURG (AUT), LU) observed 0420 UTC 19 March 2019
Temperature: 0.0°C (32°F)
Dewpoint: -1.0°C (30°F) [RH = 93%]
Pressure (altimeter): 30.27 inches Hg (1025.0 mb)
Winds: from the N (360 degrees) at 6 MPH (5 knots; 2.6 m/s)
Visibility: 6 or more miles (10+ km)
Ceiling: ceiling and visibility are OK
Clouds: unknown
Weather: no significant weather observed at this time

METAR text: ELLX 190350Z 35005KT CAVOK M02/M02 Q1025 NOSIG
Conditions at: ELLX (LUXEMBOURG (AUT), LU) observed 0350 UTC 19 March 2019
Temperature: -2.0°C (28°F)
Dewpoint: -2.0°C (28°F) [RH = 100%]
Pressure (altimeter): 30.27 inches Hg (1025.0 mb)
Winds: from the N (350 degrees) at 6 MPH (5 knots; 2.6 m/s)
Visibility: 6 or more miles (10+ km)
Ceiling: ceiling and visibility are OK
Clouds: unknown
Weather: no significant weather observed at this time

METAR text: ELLX 190320Z AUTO 36005KT 9999 NCD M01/M02 Q1024 NOSIG
Conditions at: ELLX (LUXEMBOURG (AUT), LU) observed 0320 UTC 19 March 2019
Temperature: -1.0°C (30°F)
Dewpoint: -2.0°C (28°F) [RH = 93%]
Pressure (altimeter): 30.24 inches Hg (1024.0 mb)
Winds: from the N (360 degrees) at 6 MPH (5 knots; 2.6 m/s)
Visibility: 6 or more miles (10+ km)
Ceiling: at least 12,000 feet AGL
Clouds: sky clear below 12,000 feet AGL
Weather: no significant weather observed at this time

METAR text: ELLX 190250Z 03004KT CAVOK 01/M01 Q1024 NOSIG
Conditions at: ELLX (LUXEMBOURG (AUT), LU) observed 0250 UTC 19 March 2019
Temperature: 1.0°C (34°F)
Dewpoint: -1.0°C (30°F) [RH = 86%]
Pressure (altimeter): 30.24 inches Hg (1024.0 mb)
Winds: from the NNE (30 degrees) at 5 MPH (4 knots; 2.1 m/s)
Visibility: 6 or more miles (10+ km)
Ceiling: ceiling and visibility are OK
Clouds: unknown
Weather: no significant weather observed at this time

METAR text: ELLX 190220Z AUTO 02004KT 9999 NCD 01/M00 Q1024 NOSIG
Conditions at: ELLX (LUXEMBOURG (AUT), LU) observed 0220 UTC 19 March 2019
Temperature: 1.0°C (34°F)
Dewpoint: 0.0°C (32°F) [RH = 93%]
Pressure (altimeter): 30.24 inches Hg (1024.0 mb)
Winds: from the NNE (20 degrees) at 5 MPH (4 knots; 2.1 m/s)
Visibility: 6 or more miles (10+ km)
Ceiling: at least 12,000 feet AGL
Clouds: sky clear below 12,000 feet AGL
Weather: no significant weather observed at this time

METAR text: ELLX 190150Z AUTO 35006KT 9999 NCD 01/M01 Q1024 NOSIG
Conditions at: ELLX (LUXEMBOURG (AUT), LU) observed 0150 UTC 19 March 2019
Temperature: 1.0°C (34°F)
Dewpoint: -1.0°C (30°F) [RH = 86%]
Pressure (altimeter): 30.24 inches Hg (1024.0 mb)
Winds: from the N (350 degrees) at 7 MPH (6 knots; 3.1 m/s)
Visibility: 6 or more miles (10+ km)
Ceiling: at least 12,000 feet AGL
Clouds: sky clear below 12,000 feet AGL
Weather: no significant weather observed at this time

METAR text: ELLX 190120Z AUTO 35008KT 9999 NCD 01/M00 Q1024 NOSIG
Conditions at: ELLX (LUXEMBOURG (AUT), LU) observed 0120 UTC 19 March 2019
Temperature: 1.0°C (34°F)
Dewpoint: 0.0°C (32°F) [RH = 93%]
Pressure (altimeter): 30.24 inches Hg (1024.0 mb)
Winds: from the N (350 degrees) at 9 MPH (8 knots; 4.1 m/s)
Visibility: 6 or more miles (10+ km)
Ceiling: at least 12,000 feet AGL
Clouds: sky clear below 12,000 feet AGL
Weather: no significant weather observed at this time

METAR text: ELLX 190050Z AUTO 35007KT 9999 BKN043/// BKN050/// 01/M01 Q1024 NOSIG
Conditions at: ELLX (LUXEMBOURG (AUT), LU) observed 0050 UTC 19 March 2019
Temperature: 1.0°C (34°F)
Dewpoint: -1.0°C (30°F) [RH = 86%]
Pressure (altimeter): 30.24 inches Hg (1024.0 mb)
Winds: from the N (350 degrees) at 8 MPH (7 knots; 3.6 m/s)
Visibility: 6 or more miles (10+ km)
Ceiling: 4300 feet AGL
Clouds: broken clouds at 4300 feet AGL
broken clouds at 5000 feet AGL
Weather: no significant weather observed at this time

METAR text: ELLX 190020Z 36003KT CAVOK 01/M00 Q1024 NOSIG
Conditions at: ELLX (LUXEMBOURG (AUT), LU) observed 0020 UTC 19 March 2019
Temperature: 1.0°C (34°F)
Dewpoint: 0.0°C (32°F) [RH = 93%]
Pressure (altimeter): 30.24 inches Hg (1024.0 mb)
Winds: from the N (360 degrees) at 3 MPH (3 knots; 1.5 m/s)
Visibility: 6 or more miles (10+ km)
Ceiling: ceiling and visibility are OK
Clouds: unknown
Weather: no significant weather observed at this time

METAR text: ELLX 182350Z 09003KT 050V120 CAVOK 01/M00 Q1024 NOSIG
Conditions at: ELLX (LUXEMBOURG (AUT), LU) observed 2350 UTC 18 March 2019
Temperature: 1.0°C (34°F)
Dewpoint: 0.0°C (32°F) [RH = 93%]
Pressure (altimeter): 30.24 inches Hg (1024.0 mb)
Winds: from the E (90 degrees) at 3 MPH (3 knots; 1.5 m/s)
Visibility: 6 or more miles (10+ km)
Ceiling: ceiling and visibility are OK
Clouds: unknown
Weather: no significant weather observed at this time

METAR text: ELLX 182320Z 34004KT CAVOK 00/M01 Q1023 NOSIG
Conditions at: ELLX (LUXEMBOURG (AUT), LU) observed 2320 UTC 18 March 2019
Temperature: 0.0°C (32°F)
Dewpoint: -1.0°C (30°F) [RH = 93%]
Pressure (altimeter): 30.21 inches Hg (1023.0 mb)
Winds: from the NNW (340 degrees) at 5 MPH (4 knots; 2.1 m/s)
Visibility: 6 or more miles (10+ km)
Ceiling: ceiling and visibility are OK
Clouds: unknown
Weather: no significant weather observed at this time

METAR text: ELLX 182250Z 33004KT CAVOK 00/M01 Q1023 NOSIG
Conditions at: ELLX (LUXEMBOURG (AUT), LU) observed 2250 UTC 18 March 2019
Temperature: 0.0°C (32°F)
Dewpoint: -1.0°C (30°F) [RH = 93%]
Pressure (altimeter): 30.21 inches Hg (1023.0 mb)
Winds: from the NNW (330 degrees) at 5 MPH (4 knots; 2.1 m/s)
Visibility: 6 or more miles (10+ km)
Ceiling: ceiling and visibility are OK
Clouds: unknown
Weather: no significant weather observed at this time

METAR text: ELLX 182220Z 31005KT 270V340 CAVOK 01/M00 Q1023 NOSIG
Conditions at: ELLX (LUXEMBOURG (AUT), LU) observed 2220 UTC 18 March 2019
Temperature: 1.0°C (34°F)
Dewpoint: 0.0°C (32°F) [RH = 93%]
Pressure (altimeter): 30.21 inches Hg (1023.0 mb)
Winds: from the NW (310 degrees) at 6 MPH (5 knots; 2.6 m/s)
Visibility: 6 or more miles (10+ km)
Ceiling: ceiling and visibility are OK
Clouds: unknown
Weather: no significant weather observed at this time

METAR text: ELLX 182150Z 33004KT CAVOK 02/00 Q1023 NOSIG
Conditions at: ELLX (LUXEMBOURG (AUT), LU) observed 2150 UTC 18 March 2019
Temperature: 2.0°C (36°F)
Dewpoint: 0.0°C (32°F) [RH = 87%]
Pressure (altimeter): 30.21 inches Hg (1023.0 mb)
Winds: from the NNW (330 degrees) at 5 MPH (4 knots; 2.1 m/s)
Visibility: 6 or more miles (10+ km)
Ceiling: ceiling and visibility are OK
Clouds: unknown
Weather: no significant weather observed at this time

METAR text: ELLX 182120Z 30005KT 180V320 CAVOK 01/M00 Q1023 NOSIG
Conditions at: ELLX (LUXEMBOURG (AUT), LU) observed 2120 UTC 18 March 2019
Temperature: 1.0°C (34°F)
Dewpoint: 0.0°C (32°F) [RH = 93%]
Pressure (altimeter): 30.21 inches Hg (1023.0 mb)
Winds: from the WNW (300 degrees) at 6 MPH (5 knots; 2.6 m/s)
Visibility: 6 or more miles (10+ km)
Ceiling: ceiling and visibility are OK
Clouds: unknown
Weather: no significant weather observed at this time

METAR text: ELLX 182050Z 32006KT CAVOK 02/M00 Q1023 NOSIG
Conditions at: ELLX (LUXEMBOURG (AUT), LU) observed 2050 UTC 18 March 2019
Temperature: 2.0°C (36°F)
Dewpoint: 0.0°C (32°F) [RH = 87%]
Pressure (altimeter): 30.21 inches Hg (1023.0 mb)
Winds: from the NW (320 degrees) at 7 MPH (6 knots; 3.1 m/s)
Visibility: 6 or more miles (10+ km)
Ceiling: ceiling and visibility are OK
Clouds: unknown
Weather: no significant weather observed at this time

METAR text: ELLX 182020Z 31006KT CAVOK 02/M00 Q1022 NOSIG
Conditions at: ELLX (LUXEMBOURG (AUT), LU) observed 2020 UTC 18 March 2019
Temperature: 2.0°C (36°F)
Dewpoint: 0.0°C (32°F) [RH = 87%]
Pressure (altimeter): 30.18 inches Hg (1022.0 mb)
Winds: from the NW (310 degrees) at 7 MPH (6 knots; 3.1 m/s)
Visibility: 6 or more miles (10+ km)
Ceiling: ceiling and visibility are OK
Clouds: unknown
Weather: no significant weather observed at this time

METAR text: ELLX 181950Z 28005KT CAVOK 03/00 Q1022 NOSIG
Conditions at: ELLX (LUXEMBOURG (AUT), LU) observed 1950 UTC 18 March 2019
Temperature: 3.0°C (37°F)
Dewpoint: 0.0°C (32°F) [RH = 81%]
Pressure (altimeter): 30.18 inches Hg (1022.0 mb)
Winds: from the W (280 degrees) at 6 MPH (5 knots; 2.6 m/s)
Visibility: 6 or more miles (10+ km)
Ceiling: ceiling and visibility are OK
Clouds: unknown
Weather: no significant weather observed at this time

METAR text: ELLX 181920Z 30005KT CAVOK 04/00 Q1022 NOSIG
Conditions at: ELLX (LUXEMBOURG (AUT), LU) observed 1920 UTC 18 March 2019
Temperature: 4.0°C (39°F)
Dewpoint: 0.0°C (32°F) [RH = 75%]
Pressure (altimeter): 30.18 inches Hg (1022.0 mb)
Winds: from the WNW (300 degrees) at 6 MPH (5 knots; 2.6 m/s)
Visibility: 6 or more miles (10+ km)
Ceiling: ceiling and visibility are OK
Clouds: unknown
Weather: no significant weather observed at this time

METAR text: ELLX 181850Z 31005KT CAVOK 05/M01 Q1021 NOSIG
Conditions at: ELLX (LUXEMBOURG (AUT), LU) observed 1850 UTC 18 March 2019
Temperature: 5.0°C (41°F)
Dewpoint: -1.0°C (30°F) [RH = 65%]
Pressure (altimeter): 30.15 inches Hg (1021.0 mb)
Winds: from the NW (310 degrees) at 6 MPH (5 knots; 2.6 m/s)
Visibility: 6 or more miles (10+ km)
Ceiling: ceiling and visibility are OK
Clouds: unknown
Weather: no significant weather observed at this time

METAR text: ELLX 181820Z AUTO 32009KT 9999 FEW030/// OVC057/// 05/M00 Q1021 NOSIG
Conditions at: ELLX (LUXEMBOURG (AUT), LU) observed 1820 UTC 18 March 2019
Temperature: 5.0°C (41°F)
Dewpoint: 0.0°C (32°F) [RH = 70%]
Pressure (altimeter): 30.15 inches Hg (1021.0 mb)
Winds: from the NW (320 degrees) at 10 MPH (9 knots; 4.6 m/s)
Visibility: 6 or more miles (10+ km)
Ceiling: 5700 feet AGL
Clouds: few clouds at 3000 feet AGL
overcast cloud deck at 5700 feet AGL
Weather: no significant weather observed at this time

METAR text: ELLX 181750Z 27008KT 9999 VCSH FEW029 SCT042 BKN062 06/01 Q1021 NOSIG
Conditions at: ELLX (LUXEMBOURG (AUT), LU) observed 1750 UTC 18 March 2019
Temperature: 6.0°C (43°F)
Dewpoint: 1.0°C (34°F) [RH = 70%]
Pressure (altimeter): 30.15 inches Hg (1021.0 mb)
Winds: from the W (270 degrees) at 9 MPH (8 knots; 4.1 m/s)
Visibility: 6 or more miles (10+ km)
Ceiling: 6200 feet AGL
Clouds: few clouds at 2900 feet AGL
scattered clouds at 4200 feet AGL
broken clouds at 6200 feet AGL
Weather: VCSH  (showers in vicinity)

METAR text: ELLX 181720Z 26010KT 9999 -SHRA FEW024 SCT030 SCT044CB 06/01 Q1020 NOSIG
Conditions at: ELLX (LUXEMBOURG (AUT), LU) observed 1720 UTC 18 March 2019
Temperature: 6.0°C (43°F)
Dewpoint: 1.0°C (34°F) [RH = 70%]
Pressure (altimeter): 30.12 inches Hg (1020.0 mb)
Winds: from the W (260 degrees) at 12 MPH (10 knots; 5.1 m/s)
Visibility: 6 or more miles (10+ km)
Ceiling: at least 12,000 feet AGL
Clouds: few clouds at 2400 feet AGL
scattered clouds at 3000 feet AGL
scattered clouds at 4400 feet AGL
Weather: -SHRA  (light rain showers)

METAR text: ELLX 181650Z 24008KT 210V270 9999 FEW050CB SCT052 06/01 Q1020 NOSIG
Conditions at: ELLX (LUXEMBOURG (AUT), LU) observed 1650 UTC 18 March 2019
Temperature: 6.0°C (43°F)
Dewpoint: 1.0°C (34°F) [RH = 70%]
Pressure (altimeter): 30.12 inches Hg (1020.0 mb)
Winds: from the WSW (240 degrees) at 9 MPH (8 knots; 4.1 m/s)
Visibility: 6 or more miles (10+ km)
Ceiling: at least 12,000 feet AGL
Clouds: few clouds at 5000 feet AGL
scattered clouds at 5200 feet AGL
Weather: no significant weather observed at this time

METAR text: ELLX 181620Z 24006KT CAVOK 07/01 Q1020 TEMPO SHRA SCT020CB
Conditions at: ELLX (LUXEMBOURG (AUT), LU) observed 1620 UTC 18 March 2019
Temperature: 7.0°C (45°F)
Dewpoint: 1.0°C (34°F) [RH = 66%]
Pressure (altimeter): 30.12 inches Hg (1020.0 mb)
Winds: from the WSW (240 degrees) at 7 MPH (6 knots; 3.1 m/s)
Visibility: 6 or more miles (10+ km)
Ceiling: ceiling and visibility are OK
Clouds: unknown
Weather: no significant weather observed at this time

METAR text: ELLX 181550Z 24008KT 210V270 CAVOK 07/00 Q1019 TEMPO SHRA SCT020CB
Conditions at: ELLX (LUXEMBOURG (AUT), LU) observed 1550 UTC 18 March 2019
Temperature: 7.0°C (45°F)
Dewpoint: 0.0°C (32°F) [RH = 61%]
Pressure (altimeter): 30.09 inches Hg (1019.0 mb)
Winds: from the WSW (240 degrees) at 9 MPH (8 knots; 4.1 m/s)
Visibility: 6 or more miles (10+ km)
Ceiling: ceiling and visibility are OK
Clouds: unknown
Weather: no significant weather observed at this time

METAR text: ELLX 181520Z 25008KT CAVOK 06/01 Q1019 TEMPO SHRA SCT020CB
Conditions at: ELLX (LUXEMBOURG (AUT), LU) observed 1520 UTC 18 March 2019
Temperature: 6.0°C (43°F)
Dewpoint: 1.0°C (34°F) [RH = 70%]
Pressure (altimeter): 30.09 inches Hg (1019.0 mb)
Winds: from the WSW (250 degrees) at 9 MPH (8 knots; 4.1 m/s)
Visibility: 6 or more miles (10+ km)
Ceiling: ceiling and visibility are OK
Clouds: unknown
Weather: no significant weather observed at this time

METAR text: ELLX 181450Z 25006KT 200V290 8000 FEW010 SCT027CB BKN030 05/02 Q1020 TEMPO SHRA SCT020CB
Conditions at: ELLX (LUXEMBOURG (AUT), LU) observed 1450 UTC 18 March 2019
Temperature: 5.0°C (41°F)
Dewpoint: 2.0°C (36°F) [RH = 81%]
Pressure (altimeter): 30.12 inches Hg (1020.0 mb)
Winds: from the WSW (250 degrees) at 7 MPH (6 knots; 3.1 m/s)
Visibility: 5 miles ( 8 km)
Ceiling: 3000 feet AGL
Clouds: few clouds at 1000 feet AGL
scattered clouds at 2700 feet AGL
broken clouds at 3000 feet AGL
Weather: no significant weather observed at this time

METAR text: ELLX 181420Z 26011KT 230V290 9999 VCSH FEW015 SCT033CB SCT036 06/01 Q1020 NOSIG
Conditions at: ELLX (LUXEMBOURG (AUT), LU) observed 1420 UTC 18 March 2019
Temperature: 6.0°C (43°F)
Dewpoint: 1.0°C (34°F) [RH = 70%]
Pressure (altimeter): 30.12 inches Hg (1020.0 mb)
Winds: from the W (260 degrees) at 13 MPH (11 knots; 5.7 m/s)
Visibility: 6 or more miles (10+ km)
Ceiling: at least 12,000 feet AGL
Clouds: few clouds at 1500 feet AGL
scattered clouds at 3300 feet AGL
scattered clouds at 3600 feet AGL
Weather: VCSH  (showers in vicinity)

METAR text: ELLX 181350Z 27013KT 250V320 9999 VCSH SCT028CB SCT035 06/M01 Q1019 NOSIG
Conditions at: ELLX (LUXEMBOURG (AUT), LU) observed 1350 UTC 18 March 2019
Temperature: 6.0°C (43°F)
Dewpoint: -1.0°C (30°F) [RH = 61%]
Pressure (altimeter): 30.09 inches Hg (1019.0 mb)
Winds: from the W (270 degrees) at 15 MPH (13 knots; 6.7 m/s)
Visibility: 6 or more miles (10+ km)
Ceiling: at least 12,000 feet AGL
Clouds: scattered clouds at 2800 feet AGL
scattered clouds at 3500 feet AGL
Weather: VCSH  (showers in vicinity)

METAR text: ELLX 181320Z 28006KT 250V320 9999 VCSH FEW028CB SCT048 07/01 Q1019 NOSIG
Conditions at: ELLX (LUXEMBOURG (AUT), LU) observed 1320 UTC 18 March 2019
Temperature: 7.0°C (45°F)
Dewpoint: 1.0°C (34°F) [RH = 66%]
Pressure (altimeter): 30.09 inches Hg (1019.0 mb)
Winds: from the W (280 degrees) at 7 MPH (6 knots; 3.1 m/s)
Visibility: 6 or more miles (10+ km)
Ceiling: at least 12,000 feet AGL
Clouds: few clouds at 2800 feet AGL
scattered clouds at 4800 feet AGL
Weather: VCSH  (showers in vicinity)

METAR text: ELLX 181250Z 26007KT 200V320 9999 -SHRA FEW022TCU 06/01 Q1019 NOSIG
Conditions at: ELLX (LUXEMBOURG (AUT), LU) observed 1250 UTC 18 March 2019
Temperature: 6.0°C (43°F)
Dewpoint: 1.0°C (34°F) [RH = 70%]
Pressure (altimeter): 30.09 inches Hg (1019.0 mb)
Winds: from the W (260 degrees) at 8 MPH (7 knots; 3.6 m/s)
Visibility: 6 or more miles (10+ km)
Ceiling: at least 12,000 feet AGL
Clouds: few clouds at 2200 feet AGL
Weather: -SHRA  (light rain showers)

METAR text: ELLX 181220Z 33009KT 9999 SCT019TCU 06/01 Q1019 NOSIG
Conditions at: ELLX (LUXEMBOURG (AUT), LU) observed 1220 UTC 18 March 2019
Temperature: 6.0°C (43°F)
Dewpoint: 1.0°C (34°F) [RH = 70%]
Pressure (altimeter): 30.09 inches Hg (1019.0 mb)
Winds: from the NNW (330 degrees) at 10 MPH (9 knots; 4.6 m/s)
Visibility: 6 or more miles (10+ km)
Ceiling: at least 12,000 feet AGL
Clouds: scattered clouds at 1900 feet AGL
Weather: no significant weather observed at this time

METAR text: ELLX 181150Z 24011KT 200V260 9999 SCT019 SCT050 06/00 Q1019 NOSIG
Conditions at: ELLX (LUXEMBOURG (AUT), LU) observed 1150 UTC 18 March 2019
Temperature: 6.0°C (43°F)
Dewpoint: 0.0°C (32°F) [RH = 65%]
Pressure (altimeter): 30.09 inches Hg (1019.0 mb)
Winds: from the WSW (240 degrees) at 13 MPH (11 knots; 5.7 m/s)
Visibility: 6 or more miles (10+ km)
Ceiling: at least 12,000 feet AGL
Clouds: scattered clouds at 1900 feet AGL
scattered clouds at 5000 feet AGL
Weather: no significant weather observed at this time

METAR text: ELLX 181120Z 24008KT 200V270 9999 FEW014 SCT048 07/02 Q1019 NOSIG
Conditions at: ELLX (LUXEMBOURG (AUT), LU) observed 1120 UTC 18 March 2019
Temperature: 7.0°C (45°F)
Dewpoint: 2.0°C (36°F) [RH = 70%]
Pressure (altimeter): 30.09 inches Hg (1019.0 mb)
Winds: from the WSW (240 degrees) at 9 MPH (8 knots; 4.1 m/s)
Visibility: 6 or more miles (10+ km)
Ceiling: at least 12,000 feet AGL
Clouds: few clouds at 1400 feet AGL
scattered clouds at 4800 feet AGL
Weather: no significant weather observed at this time

METAR text: ELLX 181050Z 25011KT 220V280 9999 SCT016 BKN045 05/02 Q1019 NOSIG
Conditions at: ELLX (LUXEMBOURG (AUT), LU) observed 1050 UTC 18 March 2019
Temperature: 5.0°C (41°F)
Dewpoint: 2.0°C (36°F) [RH = 81%]
Pressure (altimeter): 30.09 inches Hg (1019.0 mb)
Winds: from the WSW (250 degrees) at 13 MPH (11 knots; 5.7 m/s)
Visibility: 6 or more miles (10+ km)
Ceiling: 4500 feet AGL
Clouds: scattered clouds at 1600 feet AGL
broken clouds at 4500 feet AGL
Weather: no significant weather observed at this time

METAR text: ELLX 181020Z 26009KT 240V300 9999 SCT010 BKN040 04/02 Q1019 NOSIG
Conditions at: ELLX (LUXEMBOURG (AUT), LU) observed 1020 UTC 18 March 2019
Temperature: 4.0°C (39°F)
Dewpoint: 2.0°C (36°F) [RH = 87%]
Pressure (altimeter): 30.09 inches Hg (1019.0 mb)
Winds: from the W (260 degrees) at 10 MPH (9 knots; 4.6 m/s)
Visibility: 6 or more miles (10+ km)
Ceiling: 4000 feet AGL
Clouds: scattered clouds at 1000 feet AGL
broken clouds at 4000 feet AGL
Weather: no significant weather observed at this time

METAR text: ELLX 180950Z 26009KT 240V300 9999 BKN011 BKN045 04/01 Q1019 NOSIG
Conditions at: ELLX (LUXEMBOURG (AUT), LU) observed 0950 UTC 18 March 2019
Temperature: 4.0°C (39°F)
Dewpoint: 1.0°C (34°F) [RH = 81%]
Pressure (altimeter): 30.09 inches Hg (1019.0 mb)
Winds: from the W (260 degrees) at 10 MPH (9 knots; 4.6 m/s)
Visibility: 6 or more miles (10+ km)
Ceiling: 1100 feet AGL
Clouds: broken clouds at 1100 feet AGL
broken clouds at 4500 feet AGL
Weather: no significant weather observed at this time

METAR text: ELLX 180920Z 26008KT 230V290 9999 SCT007 BKN016 03/01 Q1019 NOSIG
Conditions at: ELLX (LUXEMBOURG (AUT), LU) observed 0920 UTC 18 March 2019
Temperature: 3.0°C (37°F)
Dewpoint: 1.0°C (34°F) [RH = 87%]
Pressure (altimeter): 30.09 inches Hg (1019.0 mb)
Winds: from the W (260 degrees) at 9 MPH (8 knots; 4.1 m/s)
Visibility: 6 or more miles (10+ km)
Ceiling: 1600 feet AGL
Clouds: scattered clouds at 700 feet AGL
broken clouds at 1600 feet AGL
Weather: no significant weather observed at this time

METAR text: ELLX 180850Z 24009KT 200V260 9999 BKN008 03/01 Q1018 NOSIG
Conditions at: ELLX (LUXEMBOURG (AUT), LU) observed 0850 UTC 18 March 2019
Temperature: 3.0°C (37°F)
Dewpoint: 1.0°C (34°F) [RH = 87%]
Pressure (altimeter): 30.06 inches Hg (1018.0 mb)
Winds: from the WSW (240 degrees) at 10 MPH (9 knots; 4.6 m/s)
Visibility: 6 or more miles (10+ km)
Ceiling: 800 feet AGL
Clouds: broken clouds at 800 feet AGL
Weather: no significant weather observed at this time

METAR text: ELLX 180820Z 25008KT 9999 SCT005 BKN008 02/01 Q1018 NOSIG
Conditions at: ELLX (LUXEMBOURG (AUT), LU) observed 0820 UTC 18 March 2019
Temperature: 2.0°C (36°F)
Dewpoint: 1.0°C (34°F) [RH = 93%]
Pressure (altimeter): 30.06 inches Hg (1018.0 mb)
Winds: from the WSW (250 degrees) at 9 MPH (8 knots; 4.1 m/s)
Visibility: 6 or more miles (10+ km)
Ceiling: 800 feet AGL
Clouds: scattered clouds at 500 feet AGL
broken clouds at 800 feet AGL
Weather: no significant weather observed at this time

METAR text: ELLX 180750Z 26007KT 9999 BKN004 BKN007 02/01 Q1018 NOSIG
Conditions at: ELLX (LUXEMBOURG (AUT), LU) observed 0750 UTC 18 March 2019
Temperature: 2.0°C (36°F)
Dewpoint: 1.0°C (34°F) [RH = 93%]
Pressure (altimeter): 30.06 inches Hg (1018.0 mb)
Winds: from the W (260 degrees) at 8 MPH (7 knots; 3.6 m/s)
Visibility: 6 or more miles (10+ km)
Ceiling: 400 feet AGL
Clouds: broken clouds at 400 feet AGL
broken clouds at 700 feet AGL
Weather: no significant weather observed at this time

METAR text: ELLX 180720Z 25010KT 9999 SCT005 BKN007 02/01 Q1017 NOSIG
Conditions at: ELLX (LUXEMBOURG (AUT), LU) observed 0720 UTC 18 March 2019
Temperature: 2.0°C (36°F)
Dewpoint: 1.0°C (34°F) [RH = 93%]
Pressure (altimeter): 30.03 inches Hg (1017.0 mb)
Winds: from the WSW (250 degrees) at 12 MPH (10 knots; 5.1 m/s)
Visibility: 6 or more miles (10+ km)
Ceiling: 700 feet AGL
Clouds: scattered clouds at 500 feet AGL
broken clouds at 700 feet AGL
Weather: no significant weather observed at this time

METAR text: ELLX 180650Z 26009KT 9999 BKN005 02/01 Q1017 NOSIG
Conditions at: ELLX (LUXEMBOURG (AUT), LU) observed 0650 UTC 18 March 2019
Temperature: 2.0°C (36°F)
Dewpoint: 1.0°C (34°F) [RH = 93%]
Pressure (altimeter): 30.03 inches Hg (1017.0 mb)
Winds: from the W (260 degrees) at 10 MPH (9 knots; 4.6 m/s)
Visibility: 6 or more miles (10+ km)
Ceiling: 500 feet AGL
Clouds: broken clouds at 500 feet AGL
Weather: no significant weather observed at this time

METAR text: ELLX 180620Z 23005KT 180V260 9999 BKN005 02/01 Q1016 NOSIG
Conditions at: ELLX (LUXEMBOURG (AUT), LU) observed 0620 UTC 18 March 2019
Temperature: 2.0°C (36°F)
Dewpoint: 1.0°C (34°F) [RH = 93%]
Pressure (altimeter): 30.00 inches Hg (1016.0 mb)
Winds: from the SW (230 degrees) at 6 MPH (5 knots; 2.6 m/s)
Visibility: 6 or more miles (10+ km)
Ceiling: 500 feet AGL
Clouds: broken clouds at 500 feet AGL
Weather: no significant weather observed at this time

METAR text: ELLX 180550Z 25008KT 9999 BKN005 02/01 Q1016 NOSIG
Conditions at: ELLX (LUXEMBOURG (AUT), LU) observed 0550 UTC 18 March 2019
Temperature: 2.0°C (36°F)
Dewpoint: 1.0°C (34°F) [RH = 93%]
Pressure (altimeter): 30.00 inches Hg (1016.0 mb)
Winds: from the WSW (250 degrees) at 9 MPH (8 knots; 4.1 m/s)
Visibility: 6 or more miles (10+ km)
Ceiling: 500 feet AGL
Clouds: broken clouds at 500 feet AGL
Weather: no significant weather observed at this time

METAR text: ELLX 180520Z 26010KT 9999 BKN006 02/00 Q1016 NOSIG
Conditions at: ELLX (LUXEMBOURG (AUT), LU) observed 0520 UTC 18 March 2019
Temperature: 2.0°C (36°F)
Dewpoint: 0.0°C (32°F) [RH = 87%]
Pressure (altimeter): 30.00 inches Hg (1016.0 mb)
Winds: from the W (260 degrees) at 12 MPH (10 knots; 5.1 m/s)
Visibility: 6 or more miles (10+ km)
Ceiling: 600 feet AGL
Clouds: broken clouds at 600 feet AGL
Weather: no significant weather observed at this time

METAR text: ELLX 180450Z 26012KT 9999 BKN006 02/00 Q1015 NOSIG
Conditions at: ELLX (LUXEMBOURG (AUT), LU) observed 0450 UTC 18 March 2019
Temperature: 2.0°C (36°F)
Dewpoint: 0.0°C (32°F) [RH = 87%]
Pressure (altimeter): 29.97 inches Hg (1015.0 mb)
Winds: from the W (260 degrees) at 14 MPH (12 knots; 6.2 m/s)
Visibility: 6 or more miles (10+ km)
Ceiling: 600 feet AGL
Clouds: broken clouds at 600 feet AGL
Weather: no significant weather observed at this time

METAR text: ELLX 180420Z AUTO 27011KT 9999 BKN007/// OVC009/// 01/00 Q1015 NOSIG
Conditions at: ELLX (LUXEMBOURG (AUT), LU) observed 0420 UTC 18 March 2019
Temperature: 1.0°C (34°F)
Dewpoint: 0.0°C (32°F) [RH = 93%]
Pressure (altimeter): 29.97 inches Hg (1015.0 mb)
Winds: from the W (270 degrees) at 13 MPH (11 knots; 5.7 m/s)
Visibility: 6 or more miles (10+ km)
Ceiling: 700 feet AGL
Clouds: broken clouds at 700 feet AGL
overcast cloud deck at 900 feet AGL
Weather: no significant weather observed at this time

METAR text: ELLX 180350Z 26011KT 9999 BKN008 01/00 Q1015 NOSIG
Conditions at: ELLX (LUXEMBOURG (AUT), LU) observed 0350 UTC 18 March 2019
Temperature: 1.0°C (34°F)
Dewpoint: 0.0°C (32°F) [RH = 93%]
Pressure (altimeter): 29.97 inches Hg (1015.0 mb)
Winds: from the W (260 degrees) at 13 MPH (11 knots; 5.7 m/s)
Visibility: 6 or more miles (10+ km)
Ceiling: 800 feet AGL
Clouds: broken clouds at 800 feet AGL
Weather: no significant weather observed at this time

METAR text: ELLX 180320Z 26009KT 9999 SCT008 BKN010 02/00 Q1014 NOSIG
Conditions at: ELLX (LUXEMBOURG (AUT), LU) observed 0320 UTC 18 March 2019
Temperature: 2.0°C (36°F)
Dewpoint: 0.0°C (32°F) [RH = 87%]
Pressure (altimeter): 29.94 inches Hg (1014.0 mb)
Winds: from the W (260 degrees) at 10 MPH (9 knots; 4.6 m/s)
Visibility: 6 or more miles (10+ km)
Ceiling: 1000 feet AGL
Clouds: scattered clouds at 800 feet AGL
broken clouds at 1000 feet AGL
Weather: no significant weather observed at this time

METAR text: ELLX 180250Z 26010KT 9999 SCT008 BKN010 01/M00 Q1014 NOSIG
Conditions at: ELLX (LUXEMBOURG (AUT), LU) observed 0250 UTC 18 March 2019
Temperature: 1.0°C (34°F)
Dewpoint: 0.0°C (32°F) [RH = 93%]
Pressure (altimeter): 29.94 inches Hg (1014.0 mb)
Winds: from the W (260 degrees) at 12 MPH (10 knots; 5.1 m/s)
Visibility: 6 or more miles (10+ km)
Ceiling: 1000 feet AGL
Clouds: scattered clouds at 800 feet AGL
broken clouds at 1000 feet AGL
Weather: no significant weather observed at this time

METAR text: ELLX 180220Z AUTO 25011KT 9999 FEW010/// SCT013/// 02/M00 Q1014 NOSIG
Conditions at: ELLX (LUXEMBOURG (AUT), LU) observed 0220 UTC 18 March 2019
Temperature: 2.0°C (36°F)
Dewpoint: 0.0°C (32°F) [RH = 87%]
Pressure (altimeter): 29.94 inches Hg (1014.0 mb)
Winds: from the WSW (250 degrees) at 13 MPH (11 knots; 5.7 m/s)
Visibility: 6 or more miles (10+ km)
Ceiling: at least 12,000 feet AGL
Clouds: few clouds at 1000 feet AGL
scattered clouds at 1300 feet AGL
Weather: no significant weather observed at this time

METAR text: ELLX 180150Z AUTO 24009KT 9999 SCT011/// OVC013/// 02/00 Q1014 NOSIG
Conditions at: ELLX (LUXEMBOURG (AUT), LU) observed 0150 UTC 18 March 2019
Temperature: 2.0°C (36°F)
Dewpoint: 0.0°C (32°F) [RH = 87%]
Pressure (altimeter): 29.94 inches Hg (1014.0 mb)
Winds: from the WSW (240 degrees) at 10 MPH (9 knots; 4.6 m/s)
Visibility: 6 or more miles (10+ km)
Ceiling: 1300 feet AGL
Clouds: scattered clouds at 1100 feet AGL
overcast cloud deck at 1300 feet AGL
Weather: no significant weather observed at this time

METAR text: ELLX 180120Z AUTO 25012KT 9999 OVC010/// 02/00 Q1014 NOSIG
Conditions at: ELLX (LUXEMBOURG (AUT), LU) observed 0120 UTC 18 March 2019
Temperature: 2.0°C (36°F)
Dewpoint: 0.0°C (32°F) [RH = 87%]
Pressure (altimeter): 29.94 inches Hg (1014.0 mb)
Winds: from the WSW (250 degrees) at 14 MPH (12 knots; 6.2 m/s)
Visibility: 6 or more miles (10+ km)
Ceiling: 1000 feet AGL
Clouds: overcast cloud deck at 1000 feet AGL
Weather: no significant weather observed at this time

METAR text: ELLX 180050Z AUTO 24010KT 9999 OVC011/// 02/00 Q1013 NOSIG
Conditions at: ELLX (LUXEMBOURG (AUT), LU) observed 0050 UTC 18 March 2019
Temperature: 2.0°C (36°F)
Dewpoint: 0.0°C (32°F) [RH = 87%]
Pressure (altimeter): 29.91 inches Hg (1013.0 mb)
Winds: from the WSW (240 degrees) at 12 MPH (10 knots; 5.1 m/s)
Visibility: 6 or more miles (10+ km)
Ceiling: 1100 feet AGL
Clouds: overcast cloud deck at 1100 feet AGL
Weather: no significant weather observed at this time

METAR text: ELLX 180020Z AUTO 23008KT 9999 SCT012/// 01/M00 Q1013 NOSIG
Conditions at: ELLX (LUXEMBOURG (AUT), LU) observed 0020 UTC 18 March 2019
Temperature: 1.0°C (34°F)
Dewpoint: 0.0°C (32°F) [RH = 93%]
Pressure (altimeter): 29.91 inches Hg (1013.0 mb)
Winds: from the SW (230 degrees) at 9 MPH (8 knots; 4.1 m/s)
Visibility: 6 or more miles (10+ km)
Ceiling: at least 12,000 feet AGL
Clouds: scattered clouds at 1200 feet AGL
Weather: no significant weather observed at this time

METAR text: ELLX 172350Z 23007KT CAVOK 01/M00 Q1014 NOSIG
Conditions at: ELLX (LUXEMBOURG (AUT), LU) observed 2350 UTC 17 March 2019
Temperature: 1.0°C (34°F)
Dewpoint: 0.0°C (32°F) [RH = 93%]
Pressure (altimeter): 29.94 inches Hg (1014.0 mb)
Winds: from the SW (230 degrees) at 8 MPH (7 knots; 3.6 m/s)
Visibility: 6 or more miles (10+ km)
Ceiling: ceiling and visibility are OK
Clouds: unknown
Weather: no significant weather observed at this time

METAR text: ELLX 172320Z 22006KT 9999 SCT015 01/M00 Q1014 NOSIG
Conditions at: ELLX (LUXEMBOURG (AUT), LU) observed 2320 UTC 17 March 2019
Temperature: 1.0°C (34°F)
Dewpoint: 0.0°C (32°F) [RH = 93%]
Pressure (altimeter): 29.94 inches Hg (1014.0 mb)
Winds: from the SW (220 degrees) at 7 MPH (6 knots; 3.1 m/s)
Visibility: 6 or more miles (10+ km)
Ceiling: at least 12,000 feet AGL
Clouds: scattered clouds at 1500 feet AGL
Weather: no significant weather observed at this time

METAR text: ELLX 172250Z 23006KT 9999 FEW030 02/00 Q1013 NOSIG
Conditions at: ELLX (LUXEMBOURG (AUT), LU) observed 2250 UTC 17 March 2019
Temperature: 2.0°C (36°F)
Dewpoint: 0.0°C (32°F) [RH = 87%]
Pressure (altimeter): 29.91 inches Hg (1013.0 mb)
Winds: from the SW (230 degrees) at 7 MPH (6 knots; 3.1 m/s)
Visibility: 6 or more miles (10+ km)
Ceiling: at least 12,000 feet AGL
Clouds: few clouds at 3000 feet AGL
Weather: no significant weather observed at this time

METAR text: ELLX 172220Z 24009KT 9999 SCT020 SCT030 02/00 Q1013 NOSIG
Conditions at: ELLX (LUXEMBOURG (AUT), LU) observed 2220 UTC 17 March 2019
Temperature: 2.0°C (36°F)
Dewpoint: 0.0°C (32°F) [RH = 87%]
Pressure (altimeter): 29.91 inches Hg (1013.0 mb)
Winds: from the WSW (240 degrees) at 10 MPH (9 knots; 4.6 m/s)
Visibility: 6 or more miles (10+ km)
Ceiling: at least 12,000 feet AGL
Clouds: scattered clouds at 2000 feet AGL
scattered clouds at 3000 feet AGL
Weather: no significant weather observed at this time

METAR text: ELLX 172150Z 24009KT 9999 SCT020 BKN035 02/M00 Q1013 NOSIG
Conditions at: ELLX (LUXEMBOURG (AUT), LU) observed 2150 UTC 17 March 2019
Temperature: 2.0°C (36°F)
Dewpoint: 0.0°C (32°F) [RH = 87%]
Pressure (altimeter): 29.91 inches Hg (1013.0 mb)
Winds: from the WSW (240 degrees) at 10 MPH (9 knots; 4.6 m/s)
Visibility: 6 or more miles (10+ km)
Ceiling: 3500 feet AGL
Clouds: scattered clouds at 2000 feet AGL
broken clouds at 3500 feet AGL
Weather: no significant weather observed at this time

METAR text: ELLX 172120Z 25010KT CAVOK 03/M00 Q1013 NOSIG
Conditions at: ELLX (LUXEMBOURG (AUT), LU) observed 2120 UTC 17 March 2019
Temperature: 3.0°C (37°F)
Dewpoint: 0.0°C (32°F) [RH = 81%]
Pressure (altimeter): 29.91 inches Hg (1013.0 mb)
Winds: from the WSW (250 degrees) at 12 MPH (10 knots; 5.1 m/s)
Visibility: 6 or more miles (10+ km)
Ceiling: ceiling and visibility are OK
Clouds: unknown
Weather: no significant weather observed at this time

METAR text: ELLX 172050Z 25012KT CAVOK 03/00 Q1012 NOSIG
Conditions at: ELLX (LUXEMBOURG (AUT), LU) observed 2050 UTC 17 March 2019
Temperature: 3.0°C (37°F)
Dewpoint: 0.0°C (32°F) [RH = 81%]
Pressure (altimeter): 29.88 inches Hg (1012.0 mb)
Winds: from the WSW (250 degrees) at 14 MPH (12 knots; 6.2 m/s)
Visibility: 6 or more miles (10+ km)
Ceiling: ceiling and visibility are OK
Clouds: unknown
Weather: no significant weather observed at this time

METAR text: ELLX 172020Z 25009KT 9999 FEW035 03/01 Q1012 NOSIG
Conditions at: ELLX (LUXEMBOURG (AUT), LU) observed 2020 UTC 17 March 2019
Temperature: 3.0°C (37°F)
Dewpoint: 1.0°C (34°F) [RH = 87%]
Pressure (altimeter): 29.88 inches Hg (1012.0 mb)
Winds: from the WSW (250 degrees) at 10 MPH (9 knots; 4.6 m/s)
Visibility: 6 or more miles (10+ km)
Ceiling: at least 12,000 feet AGL
Clouds: few clouds at 3500 feet AGL
Weather: no significant weather observed at this time

METAR text: ELLX 171950Z 23008KT 9999 FEW030 02/01 Q1012 NOSIG
Conditions at: ELLX (LUXEMBOURG (AUT), LU) observed 1950 UTC 17 March 2019
Temperature: 2.0°C (36°F)
Dewpoint: 1.0°C (34°F) [RH = 93%]
Pressure (altimeter): 29.88 inches Hg (1012.0 mb)
Winds: from the SW (230 degrees) at 9 MPH (8 knots; 4.1 m/s)
Visibility: 6 or more miles (10+ km)
Ceiling: at least 12,000 feet AGL
Clouds: few clouds at 3000 feet AGL
Weather: no significant weather observed at this time

METAR text: ELLX 171920Z 24008KT 9999 FEW028 03/01 Q1012 NOSIG
Conditions at: ELLX (LUXEMBOURG (AUT), LU) observed 1920 UTC 17 March 2019
Temperature: 3.0°C (37°F)
Dewpoint: 1.0°C (34°F) [RH = 87%]
Pressure (altimeter): 29.88 inches Hg (1012.0 mb)
Winds: from the WSW (240 degrees) at 9 MPH (8 knots; 4.1 m/s)
Visibility: 6 or more miles (10+ km)
Ceiling: at least 12,000 feet AGL
Clouds: few clouds at 2800 feet AGL
Weather: no significant weather observed at this time

METAR text: ELLX 171850Z 26012KT 9999 -SHGS FEW006 BKN014CB BKN036 03/00 Q1011 NOSIG
Conditions at: ELLX (LUXEMBOURG (AUT), LU) observed 1850 UTC 17 March 2019
Temperature: 3.0°C (37°F)
Dewpoint: 0.0°C (32°F) [RH = 81%]
Pressure (altimeter): 29.85 inches Hg (1011.0 mb)
Winds: from the W (260 degrees) at 14 MPH (12 knots; 6.2 m/s)
Visibility: 6 or more miles (10+ km)
Ceiling: 1400 feet AGL
Clouds: few clouds at 600 feet AGL
broken clouds at 1400 feet AGL
broken clouds at 3600 feet AGL
Weather: -SHGS  (unknown weather)

METAR text: ELLX 171820Z 26017KT 9999 VCSH SCT018TCU SCT042 04/M01 Q1010 NOSIG
Conditions at: ELLX (LUXEMBOURG (AUT), LU) observed 1820 UTC 17 March 2019
Temperature: 4.0°C (39°F)
Dewpoint: -1.0°C (30°F) [RH = 70%]
Pressure (altimeter): 29.82 inches Hg (1010.0 mb)
Winds: from the W (260 degrees) at 20 MPH (17 knots; 8.7 m/s)
Visibility: 6 or more miles (10+ km)
Ceiling: at least 12,000 feet AGL
Clouds: scattered clouds at 1800 feet AGL
scattered clouds at 4200 feet AGL
Weather: VCSH  (showers in vicinity)

METAR text: ELLX 171750Z 25014KT 9999 FEW018TCU 04/01 Q1010 NOSIG
Conditions at: ELLX (LUXEMBOURG (AUT), LU) observed 1750 UTC 17 March 2019
Temperature: 4.0°C (39°F)
Dewpoint: 1.0°C (34°F) [RH = 81%]
Pressure (altimeter): 29.82 inches Hg (1010.0 mb)
Winds: from the WSW (250 degrees) at 16 MPH (14 knots; 7.2 m/s)
Visibility: 6 or more miles (10+ km)
Ceiling: at least 12,000 feet AGL
Clouds: few clouds at 1800 feet AGL
Weather: no significant weather observed at this time

Forecast for: ELLX (LUXEMBOURG (AUT), LU)
Text: TAF ELLX 190500Z 1906/2012 36004KT CAVOK
Forecast period: 0600 UTC 19 March 2019 to 1200 UTC 20 March 2019
Forecast type: FROM: standard forecast or significant change
Winds: from the N (360 degrees) at 5 MPH (4 knots; 2.1 m/s)
Visibility: 6 or more miles 10+ km)
Ceiling: unknown
Clouds: missing
Weather: NSW  (no significant weather)
Text: TEMPO 1906/1909 5000 BR NSC
Forecast period: 0600 to 0900 UTC 19 March 2019
Forecast type: TEMPORARY: The following changes expected for less than half the time period
Visibility: 3 miles (5 km)
Ceiling: unknown
Clouds: missing
Weather: BR  (mist)